createdAt,value
2022-12-23T00:01:05.503Z,8.84
2022-12-23T00:03:32.466Z,8.82
2022-12-23T00:05:59.491Z,8.81
2022-12-23T00:08:26.908Z,8.84
2022-12-23T00:10:54.874Z,8.83
2022-12-23T00:13:39.808Z,8.85
2022-12-23T00:16:08.228Z,8.84
2022-12-23T00:18:35.159Z,8.85
2022-12-23T00:21:08.239Z,8.84
2022-12-23T00:23:36.809Z,8.82
2022-12-23T00:26:03.702Z,8.78
2022-12-23T00:28:30.618Z,8.85
2022-12-23T00:31:01.333Z,8.82
2022-12-23T00:33:28.962Z,8.80
2022-12-23T00:35:55.890Z,8.93
2022-12-23T00:38:42.301Z,8.89
2022-12-23T00:41:29.757Z,8.89
2022-12-23T00:43:56.774Z,8.86
2022-12-23T00:46:23.264Z,8.87
2022-12-23T00:49:08.532Z,8.93
2022-12-23T00:51:35.305Z,8.92
2022-12-23T00:54:01.876Z,8.91
2022-12-23T00:56:30.382Z,8.90
2022-12-23T00:58:56.932Z,8.86
2022-12-23T01:01:42.166Z,8.85
2022-12-23T01:04:29.910Z,8.89
2022-12-23T01:06:56.287Z,8.92
2022-12-23T01:09:22.869Z,8.88
2022-12-23T01:11:49.258Z,8.90
2022-12-23T01:14:17.474Z,8.92
2022-12-23T01:16:44.525Z,8.92
2022-12-23T01:19:11.809Z,8.84
2022-12-23T01:21:38.496Z,8.93
2022-12-23T01:24:05.404Z,8.97
2022-12-23T01:26:31.878Z,9.03
2022-12-23T01:28:58.587Z,8.89
2022-12-23T01:31:26.219Z,8.92
2022-12-23T01:33:53.081Z,8.97
2022-12-23T01:36:19.958Z,8.89
2022-12-23T01:38:46.323Z,8.96
2022-12-23T01:41:39.641Z,8.99
2022-12-23T01:44:25.914Z,8.95
2022-12-23T01:46:52.378Z,8.95
2022-12-23T01:49:18.893Z,9.04
2022-12-23T01:51:45.282Z,8.93
2022-12-23T01:54:11.664Z,8.96
2022-12-23T01:56:38.748Z,8.97
2022-12-23T01:59:35.003Z,9.02
2022-12-23T02:02:20.438Z,9.05
2022-12-23T02:04:47.917Z,9.00
2022-12-23T02:07:33.144Z,8.98
2022-12-23T02:09:59.526Z,9.00
2022-12-23T02:12:25.939Z,8.97
2022-12-23T02:15:16.924Z,8.97
2022-12-23T02:18:01.683Z,9.01
2022-12-23T02:20:30.963Z,8.88
2022-12-23T02:23:14.453Z,8.96
2022-12-23T02:25:54.734Z,8.93
2022-12-23T02:28:21.104Z,8.96
2022-12-23T02:30:51.224Z,8.94
2022-12-23T02:33:31.452Z,9.00
2022-12-23T02:36:17.976Z,9.06
2022-12-23T02:38:59.867Z,9.08
2022-12-23T02:41:32.106Z,9.06
2022-12-23T02:44:27.883Z,8.96
2022-12-23T02:47:12.786Z,8.97
2022-12-23T02:49:45.549Z,8.94
2022-12-23T02:52:13.537Z,8.97
2022-12-23T02:54:41.898Z,8.96
2022-12-23T02:57:11.416Z,9.04
2022-12-23T02:59:44.621Z,9.06
2022-12-23T03:02:11.174Z,9.10
2022-12-23T03:04:38.142Z,9.05
2022-12-23T03:07:08.089Z,9.01
2022-12-23T03:09:50.691Z,9.02
2022-12-23T03:12:34.550Z,9.13
2022-12-23T03:15:00.910Z,9.07
2022-12-23T03:17:33.168Z,9.12
2022-12-23T03:20:20.418Z,9.15
2022-12-23T03:22:52.882Z,9.10
2022-12-23T03:25:24.237Z,9.09
2022-12-23T03:27:59.521Z,9.15
2022-12-23T03:30:26.418Z,9.21
2022-12-23T03:32:55.396Z,9.10
2022-12-23T03:35:24.236Z,9.09
2022-12-23T03:37:53.148Z,9.15
2022-12-23T03:40:23.035Z,9.10
2022-12-23T03:42:54.272Z,9.17
2022-12-23T03:45:40.848Z,9.22
2022-12-23T03:48:13.216Z,9.20
2022-12-23T03:50:42.842Z,9.20
2022-12-23T03:53:16.489Z,9.18
2022-12-23T03:55:48.208Z,9.17
2022-12-23T03:58:24.370Z,9.11
2022-12-23T04:00:57.537Z,9.16
2022-12-23T04:03:38.239Z,9.20
2022-12-23T04:06:09.437Z,9.15
2022-12-23T04:08:37.223Z,9.21
2022-12-23T04:11:04.157Z,9.10
2022-12-23T04:13:30.983Z,9.20
2022-12-23T04:15:58.044Z,9.16
2022-12-23T04:18:24.650Z,9.19
2022-12-23T04:20:51.143Z,9.14
2022-12-23T04:23:17.605Z,9.11
2022-12-23T04:25:43.971Z,9.17
2022-12-23T04:28:10.426Z,9.20
2022-12-23T04:30:36.863Z,9.22
2022-12-23T04:33:03.719Z,9.06
2022-12-23T04:35:30.456Z,9.16
2022-12-23T04:37:56.828Z,9.14
2022-12-23T04:40:23.253Z,9.18
2022-12-23T04:42:49.675Z,9.16
2022-12-23T04:45:16.084Z,9.17
2022-12-23T04:47:42.545Z,9.11
2022-12-23T04:50:13.215Z,9.14
2022-12-23T04:52:39.619Z,9.10
2022-12-23T04:55:06.272Z,9.16
2022-12-23T04:57:32.684Z,9.13
2022-12-23T04:59:59.056Z,9.10
2022-12-23T05:02:25.533Z,9.16
2022-12-23T05:04:51.951Z,9.15
2022-12-23T05:07:18.375Z,9.18
2022-12-23T05:09:44.783Z,9.16
2022-12-23T05:12:11.166Z,9.12
2022-12-23T05:14:37.536Z,9.18
2022-12-23T05:17:07.671Z,9.09
2022-12-23T05:19:34.600Z,9.24
2022-12-23T05:22:00.998Z,9.18
2022-12-23T05:24:27.372Z,9.22
2022-12-23T05:26:59.649Z,9.17
2022-12-23T05:29:27.081Z,9.17
2022-12-23T05:31:53.534Z,9.13
2022-12-23T05:34:19.992Z,9.15
2022-12-23T05:36:46.352Z,9.16
2022-12-23T05:39:12.724Z,9.14
2022-12-23T05:41:39.129Z,9.15
2022-12-23T05:44:05.686Z,9.11
2022-12-23T05:46:32.131Z,9.08
2022-12-23T05:48:58.703Z,9.10
2022-12-23T05:51:25.142Z,9.10
2022-12-23T05:53:51.576Z,9.08
2022-12-23T05:56:18.010Z,9.12
2022-12-23T05:58:44.417Z,9.18
2022-12-23T06:01:10.834Z,9.19
2022-12-23T06:03:37.454Z,9.18
2022-12-23T06:06:04.078Z,9.11
2022-12-23T06:08:30.485Z,9.14
2022-12-23T06:10:56.864Z,9.07
2022-12-23T06:13:23.284Z,9.09
2022-12-23T06:15:49.632Z,9.11
2022-12-23T06:18:16.120Z,9.19
2022-12-23T06:20:45.193Z,9.17
2022-12-23T06:23:11.600Z,9.19
2022-12-23T06:25:37.975Z,9.15
2022-12-23T06:28:04.579Z,9.12
2022-12-23T06:30:31.037Z,9.17
2022-12-23T06:32:57.386Z,9.18
2022-12-23T06:35:23.998Z,9.13
2022-12-23T06:37:52.712Z,9.06
2022-12-23T06:40:19.116Z,9.21
2022-12-23T06:42:45.503Z,9.14
2022-12-23T06:45:11.942Z,9.05
2022-12-23T06:47:38.436Z,9.07
2022-12-23T06:50:05.055Z,9.08
2022-12-23T06:52:31.423Z,9.02
2022-12-23T06:54:57.814Z,9.08
2022-12-23T06:57:24.179Z,9.06
2022-12-23T06:59:50.566Z,9.04
2022-12-23T07:02:17.208Z,9.03
2022-12-23T07:04:43.731Z,9.01
2022-12-23T07:07:10.127Z,9.06
2022-12-23T07:09:36.490Z,9.01
2022-12-23T07:12:03.715Z,9.04
2022-12-23T07:14:30.128Z,9.00
2022-12-23T07:16:56.580Z,9.02
2022-12-23T07:19:23.018Z,9.02
2022-12-23T07:21:49.360Z,9.01
2022-12-23T07:24:15.935Z,8.96
2022-12-23T07:26:42.441Z,9.05
2022-12-23T07:29:08.812Z,9.06
2022-12-23T07:31:38.146Z,9.09
2022-12-23T07:34:07.322Z,9.00
2022-12-23T07:36:33.693Z,9.04
2022-12-23T07:39:00.050Z,9.03
2022-12-23T07:41:26.511Z,9.03
2022-12-23T07:43:52.914Z,9.09
2022-12-23T07:46:19.418Z,9.04
2022-12-23T07:48:45.818Z,9.06
2022-12-23T07:51:12.229Z,9.11
2022-12-23T07:53:38.677Z,9.08
2022-12-23T07:56:05.350Z,9.09
2022-12-23T07:58:31.757Z,9.06
2022-12-23T08:01:05.200Z,9.06
2022-12-23T08:03:31.876Z,9.07
2022-12-23T08:06:08.958Z,9.06
2022-12-23T08:08:35.475Z,9.07
2022-12-23T08:11:03.998Z,9.10
2022-12-23T08:13:31.318Z,9.13
2022-12-23T08:15:58.591Z,9.07
2022-12-23T08:18:25.617Z,9.09
2022-12-23T08:20:55.986Z,9.15
2022-12-23T08:23:24.939Z,9.15
2022-12-23T08:26:02.113Z,9.10
2022-12-23T08:28:28.608Z,9.13
2022-12-23T08:30:55.054Z,9.16
2022-12-23T08:33:21.451Z,9.18
2022-12-23T08:35:47.864Z,9.11
2022-12-23T08:38:14.254Z,9.13
2022-12-23T08:40:40.738Z,9.12
2022-12-23T08:43:07.835Z,9.10
2022-12-23T08:45:38.363Z,9.03
2022-12-23T08:48:05.899Z,9.04
2022-12-23T08:50:42.746Z,9.10
2022-12-23T08:53:09.643Z,9.05
2022-12-23T08:55:40.078Z,9.05
2022-12-23T08:58:06.933Z,9.03
2022-12-23T09:00:33.536Z,9.10
2022-12-23T09:03:00.071Z,9.08
2022-12-23T09:05:26.647Z,9.09
2022-12-23T09:07:53.057Z,9.11
2022-12-23T09:10:19.584Z,9.08
2022-12-23T09:12:46.058Z,9.20
2022-12-23T09:15:12.463Z,9.21
2022-12-23T09:17:38.846Z,9.07
2022-12-23T09:20:05.618Z,9.17
2022-12-23T09:22:32.888Z,9.18
2022-12-23T09:25:04.805Z,9.21
2022-12-23T09:27:31.750Z,9.19
2022-12-23T09:29:58.149Z,9.18
2022-12-23T09:32:24.497Z,9.22
2022-12-23T09:34:50.893Z,9.18
2022-12-23T09:37:17.336Z,9.19
2022-12-23T09:39:43.845Z,9.24
2022-12-23T09:42:33.113Z,9.26
2022-12-23T09:45:12.990Z,9.28
2022-12-23T09:47:39.654Z,9.30
2022-12-23T09:50:25.155Z,9.34
2022-12-23T09:52:51.532Z,9.36
2022-12-23T09:55:18.883Z,9.30
2022-12-23T09:57:51.019Z,9.31
2022-12-23T10:00:18.951Z,9.31
2022-12-23T10:03:04.419Z,9.35
2022-12-23T10:05:35.227Z,9.32
2022-12-23T10:08:03.811Z,9.36
2022-12-23T10:10:36.462Z,9.42
2022-12-23T10:13:05.977Z,9.45
2022-12-23T10:15:32.460Z,9.37
2022-12-23T10:18:20.641Z,9.36
2022-12-23T10:21:25.765Z,9.48
2022-12-23T10:23:53.632Z,9.37
2022-12-23T10:26:23.263Z,9.42
2022-12-23T10:28:58.728Z,9.32
2022-12-23T10:31:40.785Z,9.46
2022-12-23T10:34:14.835Z,9.47
2022-12-23T10:36:57.347Z,9.50
2022-12-23T10:39:26.504Z,9.59
2022-12-23T10:42:11.085Z,9.65
2022-12-23T10:45:00.468Z,9.71
2022-12-23T10:47:33.094Z,9.74
2022-12-23T10:50:18.155Z,9.76
2022-12-23T10:52:45.366Z,9.77
2022-12-23T10:55:20.023Z,9.80
2022-12-23T10:57:46.453Z,9.89
2022-12-23T11:00:18.289Z,10.00
2022-12-23T11:02:48.422Z,9.97
2022-12-23T11:05:17.521Z,9.93
2022-12-23T11:07:46.347Z,9.93
2022-12-23T11:10:35.101Z,9.95
2022-12-23T11:13:01.612Z,10.02
2022-12-23T11:15:35.792Z,9.98
2022-12-23T11:18:12.199Z,10.07
2022-12-23T11:20:40.379Z,10.03
2022-12-23T11:23:37.130Z,10.08
2022-12-23T11:26:07.905Z,10.17
2022-12-23T11:28:37.343Z,10.09
2022-12-23T11:31:08.436Z,10.13
2022-12-23T11:33:34.964Z,10.28
2022-12-23T11:36:01.949Z,10.26
2022-12-23T11:38:28.550Z,10.16
2022-12-23T11:40:55.022Z,10.10
2022-12-23T11:43:23.312Z,10.14
2022-12-23T11:46:09.660Z,10.12
2022-12-23T11:48:36.151Z,10.13
2022-12-23T11:51:03.954Z,10.06
2022-12-23T11:53:31.330Z,10.05
2022-12-23T11:55:58.207Z,10.04
2022-12-23T11:58:25.229Z,10.03
2022-12-23T12:00:56.127Z,10.01
2022-12-23T12:03:25.736Z,9.99
2022-12-23T12:05:57.653Z,9.98
2022-12-23T12:08:35.578Z,10.01
2022-12-23T12:11:06.005Z,10.01
2022-12-23T12:13:36.819Z,10.02
2022-12-23T12:16:03.257Z,10.02
2022-12-23T12:18:29.813Z,9.99
2022-12-23T12:21:01.163Z,9.93
2022-12-23T12:23:33.915Z,9.91
2022-12-23T12:26:06.280Z,10.03
2022-12-23T12:28:34.536Z,10.00
2022-12-23T12:31:19.100Z,10.01
2022-12-23T12:33:59.704Z,9.85
2022-12-23T12:36:32.925Z,9.87
2022-12-23T12:39:00.122Z,9.77
2022-12-23T12:41:34.196Z,9.68
2022-12-23T12:44:03.683Z,9.77
2022-12-23T12:46:42.999Z,9.79
2022-12-23T12:49:28.222Z,9.81
2022-12-23T12:52:13.979Z,9.69
2022-12-23T12:54:40.372Z,9.72
2022-12-23T12:57:12.828Z,9.71
2022-12-23T12:59:40.311Z,9.70
2022-12-23T13:02:15.711Z,9.65
2022-12-23T13:05:00.633Z,9.68
2022-12-23T13:07:46.744Z,9.61
2022-12-23T13:10:25.003Z,9.74
2022-12-23T13:12:51.369Z,9.68
2022-12-23T13:15:18.746Z,9.76
2022-12-23T13:17:45.082Z,9.68
2022-12-23T13:20:29.829Z,9.57
2022-12-23T13:23:14.903Z,9.52
2022-12-23T13:25:49.542Z,9.43
2022-12-23T13:28:25.718Z,9.43
2022-12-23T13:30:59.813Z,9.51
2022-12-23T13:33:38.772Z,9.49
2022-12-23T13:36:11.742Z,9.52
2022-12-23T13:39:03.259Z,9.45
2022-12-23T13:41:35.908Z,9.48
2022-12-23T13:44:07.500Z,9.53
2022-12-23T13:46:56.216Z,9.49
2022-12-23T13:49:22.581Z,9.45
2022-12-23T13:52:00.522Z,9.48
2022-12-23T13:54:26.854Z,9.48
2022-12-23T13:57:08.316Z,9.52
2022-12-23T13:59:39.712Z,9.53
2022-12-23T14:02:26.066Z,9.46
2022-12-23T14:04:55.520Z,9.49
2022-12-23T14:07:22.794Z,9.48
2022-12-23T14:09:52.121Z,9.45
2022-12-23T14:12:27.959Z,9.40
2022-12-23T14:15:13.944Z,9.43
2022-12-23T14:18:02.673Z,9.35
2022-12-23T14:20:43.131Z,9.49
2022-12-23T14:23:28.030Z,9.48
2022-12-23T14:26:19.060Z,9.46
2022-12-23T14:29:20.906Z,9.49
2022-12-23T14:31:54.137Z,9.45
2022-12-23T14:34:20.489Z,9.43
2022-12-23T14:37:19.415Z,9.41
2022-12-23T14:39:45.968Z,9.39
2022-12-23T14:42:16.544Z,9.39
2022-12-23T14:44:49.114Z,9.43
2022-12-23T14:47:29.097Z,9.37
2022-12-23T14:49:55.476Z,9.42
2022-12-23T14:52:44.245Z,9.46
2022-12-23T14:55:31.649Z,9.49
2022-12-23T14:58:20.081Z,9.53
2022-12-23T15:00:47.801Z,9.57
2022-12-23T15:03:15.844Z,9.67
2022-12-23T15:05:42.720Z,9.73
2022-12-23T15:08:18.938Z,9.69
2022-12-23T15:10:45.496Z,9.76
2022-12-23T15:13:14.081Z,9.68
2022-12-23T15:15:50.150Z,9.73
2022-12-23T15:18:16.541Z,9.81
2022-12-23T15:20:42.963Z,9.88
2022-12-23T15:23:11.523Z,9.81
2022-12-23T15:25:43.471Z,9.77
2022-12-23T15:28:20.525Z,9.82
2022-12-23T15:30:52.005Z,9.82
2022-12-23T15:34:00.749Z,9.82
2022-12-23T15:36:09.757Z,9.94
2022-12-23T15:38:37.486Z,9.99
2022-12-23T15:41:05.611Z,9.98
2022-12-23T15:43:32.254Z,10.09
2022-12-23T15:46:07.777Z,10.09
2022-12-23T15:48:34.759Z,10.22
2022-12-23T15:51:06.983Z,10.35
2022-12-23T15:53:35.236Z,10.29
2022-12-23T15:56:05.427Z,10.45
2022-12-23T15:58:33.702Z,10.53
2022-12-23T16:01:00.789Z,10.64
2022-12-23T16:03:27.369Z,10.66
2022-12-23T16:05:53.988Z,10.59
2022-12-23T16:08:29.899Z,10.61
2022-12-23T16:11:02.035Z,10.50
2022-12-23T16:13:28.534Z,10.69
2022-12-23T16:15:55.141Z,10.62
2022-12-23T16:18:26.215Z,10.74
2022-12-23T16:20:54.015Z,10.89
2022-12-23T16:23:21.054Z,10.79
2022-12-23T16:25:50.804Z,11.00
2022-12-23T16:28:23.003Z,10.66
2022-12-23T16:30:57.397Z,10.93
2022-12-23T16:33:36.919Z,11.00
2022-12-23T16:36:21.997Z,10.88
2022-12-23T16:38:49.066Z,11.03
2022-12-23T16:41:15.459Z,11.01
2022-12-23T16:43:49.462Z,10.98
2022-12-23T16:46:19.564Z,10.99
2022-12-23T16:48:50.565Z,11.13
2022-12-23T16:51:20.090Z,11.14
2022-12-23T16:53:50.169Z,11.02
2022-12-23T16:56:18.025Z,11.08
2022-12-23T16:58:44.707Z,10.99
2022-12-23T17:01:15.218Z,11.11
2022-12-23T17:03:41.663Z,11.08
2022-12-23T17:06:12.418Z,11.23
2022-12-23T17:08:38.819Z,11.04
2022-12-23T17:11:05.883Z,11.07
2022-12-23T17:13:32.251Z,11.04
2022-12-23T17:15:58.829Z,11.01
2022-12-23T17:18:25.294Z,11.00
2022-12-23T17:20:51.723Z,11.10
2022-12-23T17:23:29.267Z,11.03
2022-12-23T17:25:55.744Z,11.03
2022-12-23T17:28:22.817Z,10.99
2022-12-23T17:30:53.338Z,11.12
2022-12-23T17:33:20.469Z,11.09
2022-12-23T17:35:48.021Z,11.01
2022-12-23T17:38:15.674Z,11.01
2022-12-23T17:40:43.012Z,10.94
2022-12-23T17:43:13.438Z,10.92
2022-12-23T17:45:39.855Z,10.93
2022-12-23T17:48:06.324Z,10.98
2022-12-23T17:50:35.777Z,10.90
2022-12-23T17:53:02.150Z,10.95
2022-12-23T17:55:29.215Z,10.84
2022-12-23T17:57:55.664Z,10.83
2022-12-23T18:00:31.946Z,10.77
2022-12-23T18:03:00.958Z,10.79
2022-12-23T18:05:28.460Z,10.74
2022-12-23T18:07:55.659Z,10.77
2022-12-23T18:10:24.180Z,10.73
2022-12-23T18:12:53.479Z,10.73
2022-12-23T18:15:22.093Z,10.70
2022-12-23T18:17:49.434Z,10.68
2022-12-23T18:20:17.960Z,10.70
2022-12-23T18:22:45.945Z,10.70
2022-12-23T18:25:38.696Z,10.65
2022-12-23T18:28:05.160Z,10.62
2022-12-23T18:30:31.653Z,10.69
2022-12-23T18:32:58.075Z,10.67
2022-12-23T18:35:35.314Z,10.61
2022-12-23T18:38:01.957Z,10.66
2022-12-23T18:40:32.772Z,10.66
2022-12-23T18:42:59.914Z,10.66
2022-12-23T18:45:29.259Z,10.59
2022-12-23T18:47:56.660Z,10.66
2022-12-23T18:50:23.526Z,10.63
2022-12-23T18:52:50.011Z,10.61
2022-12-23T18:55:16.616Z,10.63
2022-12-23T18:57:43.084Z,10.59
2022-12-23T19:00:14.500Z,10.58
2022-12-23T19:02:41.093Z,10.61
2022-12-23T19:05:08.175Z,10.58
2022-12-23T19:07:34.579Z,10.60
2022-12-23T19:10:01.056Z,10.62
2022-12-23T19:12:27.468Z,10.72
2022-12-23T19:14:53.934Z,10.68
2022-12-23T19:17:20.289Z,10.64
2022-12-23T19:19:46.667Z,10.66
2022-12-23T19:22:13.063Z,10.75
2022-12-23T19:24:51.862Z,10.69
2022-12-23T19:27:25.804Z,10.75
2022-12-23T19:29:52.236Z,10.67
2022-12-23T19:32:18.653Z,10.66
2022-12-23T19:34:46.237Z,10.70
2022-12-23T19:37:12.604Z,10.65
2022-12-23T19:39:40.844Z,10.61
2022-12-23T19:42:07.936Z,10.53
2022-12-23T19:44:35.571Z,10.56
2022-12-23T19:47:03.739Z,10.50
2022-12-23T19:49:30.393Z,10.55
2022-12-23T19:51:56.812Z,10.53
2022-12-23T19:54:23.168Z,10.46
2022-12-23T19:56:50.125Z,10.47
2022-12-23T19:59:16.622Z,10.49
2022-12-23T20:01:43.037Z,10.50
2022-12-23T20:04:09.806Z,10.49
2022-12-23T20:06:38.261Z,10.47
2022-12-23T20:09:06.347Z,10.42
2022-12-23T20:11:34.115Z,10.49
2022-12-23T20:14:01.073Z,10.45
2022-12-23T20:16:28.562Z,10.43
2022-12-23T20:18:55.218Z,10.47
2022-12-23T20:21:21.680Z,10.42
2022-12-23T20:23:48.296Z,10.34
2022-12-23T20:26:15.284Z,10.42
2022-12-23T20:28:42.102Z,10.39
2022-12-23T20:31:12.658Z,10.41
2022-12-23T20:33:39.322Z,10.41
2022-12-23T20:36:06.321Z,10.42
2022-12-23T20:38:36.755Z,10.44
2022-12-23T20:41:03.184Z,10.44
2022-12-23T20:43:29.626Z,10.45
2022-12-23T20:45:56.048Z,10.39
2022-12-23T20:48:23.422Z,10.40
2022-12-23T20:50:52.226Z,10.41
2022-12-23T20:53:18.666Z,10.47
2022-12-23T20:55:45.053Z,10.39
2022-12-23T20:58:34.392Z,10.50
2022-12-23T21:01:07.937Z,10.44
2022-12-23T21:03:34.505Z,10.44
2022-12-23T21:06:00.954Z,10.40
2022-12-23T21:08:27.336Z,10.35
2022-12-23T21:10:54.452Z,10.34
2022-12-23T21:13:20.836Z,10.43
2022-12-23T21:15:47.248Z,10.37
2022-12-23T21:18:13.672Z,10.41
2022-12-23T21:20:40.089Z,10.44
2022-12-23T21:23:06.530Z,10.35
2022-12-23T21:25:32.912Z,10.38
2022-12-23T21:27:59.293Z,10.44
2022-12-23T21:30:25.688Z,10.37
2022-12-23T21:32:52.300Z,10.33
2022-12-23T21:35:18.749Z,10.29
2022-12-23T21:37:45.135Z,10.25
2022-12-23T21:40:14.494Z,10.23
2022-12-23T21:42:40.932Z,10.22
2022-12-23T21:45:08.680Z,10.23
2022-12-23T21:47:35.040Z,10.22
2022-12-23T21:50:01.427Z,10.19
2022-12-23T21:52:27.860Z,10.18
2022-12-23T21:54:54.238Z,10.22
2022-12-23T21:57:20.694Z,10.20
2022-12-23T21:59:47.056Z,10.27
2022-12-23T22:02:16.712Z,10.25
2022-12-23T22:04:43.196Z,10.28
2022-12-23T22:07:09.567Z,10.26
2022-12-23T22:09:35.984Z,10.27
2022-12-23T22:12:03.858Z,10.28
2022-12-23T22:14:30.423Z,10.26
2022-12-23T22:16:56.910Z,10.19
2022-12-23T22:19:23.368Z,10.27
2022-12-23T22:21:49.734Z,10.30
2022-12-23T22:24:16.123Z,10.25
2022-12-23T22:26:42.564Z,10.30
2022-12-23T22:29:10.425Z,10.22
2022-12-23T22:31:39.730Z,10.28
2022-12-23T22:34:07.221Z,10.27
2022-12-23T22:36:34.043Z,10.30
2022-12-23T22:39:01.178Z,10.23
2022-12-23T22:41:28.448Z,10.28
2022-12-23T22:43:55.561Z,10.28
2022-12-23T22:46:22.616Z,10.30
2022-12-23T22:48:49.177Z,10.30
2022-12-23T22:51:23.515Z,10.33
2022-12-23T22:53:49.981Z,10.29
2022-12-23T22:56:17.597Z,10.27
2022-12-23T22:58:44.005Z,10.25
2022-12-23T23:01:22.696Z,10.28
2022-12-23T23:03:51.109Z,10.28
2022-12-23T23:06:18.750Z,10.25
2022-12-23T23:08:45.148Z,10.26
2022-12-23T23:11:11.548Z,10.24
2022-12-23T23:13:38.229Z,10.25
2022-12-23T23:16:04.759Z,10.19
2022-12-23T23:18:31.176Z,10.26
2022-12-23T23:20:57.572Z,10.26
2022-12-23T23:23:24.172Z,10.31
2022-12-23T23:25:50.572Z,10.24
2022-12-23T23:28:17.303Z,10.25
2022-12-23T23:30:43.692Z,10.23
2022-12-23T23:33:10.790Z,10.27
2022-12-23T23:35:37.215Z,10.22
2022-12-23T23:38:03.629Z,10.22
2022-12-23T23:40:30.100Z,10.20
2022-12-23T23:42:56.505Z,10.17
2022-12-23T23:45:23.039Z,10.21
2022-12-23T23:47:49.404Z,10.16
2022-12-23T23:50:15.811Z,10.16
2022-12-23T23:52:42.272Z,10.15
2022-12-23T23:55:09.107Z,10.15
2022-12-23T23:57:35.493Z,10.16
